Terminal Aerodrome Forecast
Issued by NWS Tulsa, OK

Home | Current Version | Previous Version | Text Only | Print | Product List | Glossary On
Versions: 1 2 3 4 5 6 7 8 9 10 11 12 13 14 15 16
000
FTUS44 KTSA 312320
TAFTUL
TAF
KTUL 312320Z 0100/0124 10007KT P6SM SCT120 BKN200
     FM010300 VRB03KT P6SM BKN200
     FM011500 18008KT P6SM SCT250=

USA.gov is the U.S. government's official web portal to all federal, state and local government web resources and services.